createdAt,value
2019-02-21T00:00:08.413Z,5.30
2019-02-21T00:02:37.316Z,5.30
2019-02-21T00:05:06.783Z,5.20
2019-02-21T00:07:35.506Z,5.20
2019-02-21T00:10:04.532Z,5.20
2019-02-21T00:12:33.286Z,5.20
2019-02-21T00:15:02.118Z,5.20
2019-02-21T00:17:30.938Z,5.20
2019-02-21T00:19:59.772Z,5.20
2019-02-21T00:22:28.499Z,5.10
2019-02-21T00:24:57.387Z,5.10
2019-02-21T00:27:26.270Z,5.10
2019-02-21T00:29:55.078Z,5.10
2019-02-21T00:32:23.869Z,5.00
2019-02-21T00:34:52.615Z,5.00
2019-02-21T00:37:21.323Z,5.00
2019-02-21T00:39:50.132Z,4.90
2019-02-21T00:42:18.883Z,4.90
2019-02-21T00:44:47.674Z,4.90
2019-02-21T00:47:16.571Z,4.90
2019-02-21T00:49:45.324Z,4.80
2019-02-21T00:52:14.068Z,4.80
2019-02-21T00:54:42.842Z,4.80
2019-02-21T00:57:11.624Z,4.80
2019-02-21T00:59:40.365Z,4.80
2019-02-21T01:02:09.252Z,4.80
2019-02-21T01:04:38.034Z,4.70
2019-02-21T01:07:06.783Z,4.70
2019-02-21T01:09:35.599Z,4.70
2019-02-21T01:12:04.332Z,4.70
2019-02-21T01:14:33.050Z,4.70
2019-02-21T01:17:01.900Z,4.70
2019-02-21T01:19:30.692Z,4.60
2019-02-21T01:21:59.471Z,4.60
2019-02-21T01:24:28.226Z,4.70
2019-02-21T01:26:56.981Z,4.60
2019-02-21T01:29:25.732Z,4.60
2019-02-21T01:31:54.628Z,4.60
2019-02-21T01:34:23.410Z,4.60
2019-02-21T01:36:52.244Z,4.60
2019-02-21T01:39:21.126Z,4.50
2019-02-21T01:41:49.930Z,4.50
2019-02-21T01:44:18.717Z,4.50
2019-02-21T01:46:47.620Z,4.50
2019-02-21T01:49:16.398Z,4.50
2019-02-21T01:51:45.187Z,4.50
2019-02-21T01:54:14.059Z,4.50
2019-02-21T01:56:42.899Z,4.40
2019-02-21T01:59:11.716Z,4.40
2019-02-21T02:01:40.551Z,4.50
2019-02-21T02:04:09.356Z,4.40
2019-02-21T02:06:38.103Z,4.40
2019-02-21T02:09:09.180Z,4.40
2019-02-21T02:11:37.915Z,4.40
2019-02-21T02:14:06.740Z,4.40
2019-02-21T02:16:35.524Z,4.40
2019-02-21T02:19:04.364Z,4.40
2019-02-21T02:21:33.121Z,4.40
2019-02-21T02:24:01.924Z,4.40
2019-02-21T02:26:30.739Z,4.40
2019-02-21T02:28:59.572Z,4.40
2019-02-21T02:31:28.418Z,4.40
2019-02-21T02:33:57.221Z,4.40
2019-02-21T02:36:25.980Z,4.30
2019-02-21T02:38:54.789Z,4.40
2019-02-21T02:41:23.526Z,4.40
2019-02-21T02:43:52.267Z,4.40
2019-02-21T02:46:21.109Z,4.40
2019-02-21T02:48:50.052Z,4.40
2019-02-21T02:51:18.834Z,4.40
2019-02-21T02:53:47.972Z,4.40
2019-02-21T02:56:16.803Z,4.50
2019-02-21T02:58:45.841Z,4.50
2019-02-21T03:01:14.785Z,4.40
2019-02-21T03:03:43.570Z,4.40
2019-02-21T03:06:12.700Z,4.50
2019-02-21T03:08:41.564Z,4.50
2019-02-21T03:11:10.332Z,4.50
2019-02-21T03:13:39.132Z,4.60
2019-02-21T03:16:08.006Z,4.60
2019-02-21T03:18:36.771Z,4.60
2019-02-21T03:21:05.621Z,4.60
2019-02-21T03:23:34.435Z,4.60
2019-02-21T03:26:03.206Z,4.70
2019-02-21T03:28:31.974Z,4.70
2019-02-21T03:31:00.789Z,4.70
2019-02-21T03:33:29.500Z,4.80
2019-02-21T03:35:58.326Z,4.90
2019-02-21T03:38:27.138Z,5.00
2019-02-21T03:40:55.957Z,5.00
2019-02-21T03:43:24.708Z,5.10
2019-02-21T03:45:53.494Z,5.10
2019-02-21T03:48:22.252Z,5.10
2019-02-21T03:50:51.037Z,5.20
2019-02-21T03:53:19.788Z,5.20
2019-02-21T03:55:48.587Z,5.30
2019-02-21T03:58:17.339Z,5.30
2019-02-21T04:00:46.174Z,5.30
2019-02-21T04:03:15.138Z,5.40
2019-02-21T04:05:43.900Z,5.40
2019-02-21T04:08:12.715Z,5.40
2019-02-21T04:10:41.469Z,5.40
2019-02-21T04:13:10.322Z,5.40
2019-02-21T04:15:39.228Z,5.50
2019-02-21T04:18:08.060Z,5.50
2019-02-21T04:20:36.882Z,5.50
2019-02-21T04:23:05.732Z,5.50
2019-02-21T04:25:34.544Z,5.60
2019-02-21T04:28:03.305Z,5.60
2019-02-21T04:30:32.165Z,5.70
2019-02-21T04:33:01.004Z,5.70
2019-02-21T04:35:29.822Z,5.70
2019-02-21T04:37:58.637Z,5.80
2019-02-21T04:40:27.333Z,5.80
2019-02-21T04:42:56.149Z,5.80
2019-02-21T04:45:25.020Z,5.80
2019-02-21T04:47:53.797Z,5.80
2019-02-21T04:50:22.683Z,5.80
2019-02-21T04:52:51.564Z,5.80
2019-02-21T04:55:20.324Z,5.80
2019-02-21T04:57:49.061Z,5.80
2019-02-21T05:00:17.922Z,5.80
2019-02-21T05:02:46.878Z,5.80
2019-02-21T05:05:15.651Z,5.80
2019-02-21T05:07:44.635Z,5.80
2019-02-21T05:10:13.370Z,5.80
2019-02-21T05:12:42.164Z,5.80
2019-02-21T05:15:13.913Z,5.70
2019-02-21T05:17:41.640Z,5.70
2019-02-21T05:20:10.458Z,5.70
2019-02-21T05:22:39.308Z,5.70
2019-02-21T05:25:08.069Z,5.70
2019-02-21T05:27:37.980Z,5.70
2019-02-21T05:30:10.486Z,5.70
2019-02-21T05:32:55.877Z,5.70
2019-02-21T05:35:41.684Z,5.70
2019-02-21T05:38:14.813Z,5.70
2019-02-21T05:40:57.204Z,5.70
2019-02-21T05:43:27.618Z,5.70
2019-02-21T05:46:14.284Z,5.70
2019-02-21T05:48:47.676Z,5.70
2019-02-21T05:51:18.333Z,5.70
2019-02-21T05:53:54.571Z,5.70
2019-02-21T05:56:24.966Z,5.70
2019-02-21T05:59:01.495Z,5.70
2019-02-21T06:01:48.380Z,5.70
2019-02-21T06:04:25.002Z,5.60
2019-02-21T06:06:55.411Z,5.60
2019-02-21T06:09:34.555Z,5.70
2019-02-21T06:12:17.317Z,5.60
2019-02-21T06:14:47.789Z,5.70
2019-02-21T06:17:36.497Z,5.60
2019-02-21T06:20:08.163Z,5.60
2019-02-21T06:22:41.314Z,5.60
2019-02-21T06:25:29.753Z,5.60
2019-02-21T06:27:58.744Z,5.70
2019-02-21T06:30:34.988Z,5.60
2019-02-21T06:33:05.278Z,5.60
2019-02-21T06:35:34.263Z,5.60
2019-02-21T06:38:03.100Z,5.60
2019-02-21T06:40:31.871Z,5.60
2019-02-21T06:43:00.612Z,5.60
2019-02-21T06:45:29.387Z,5.60
2019-02-21T06:47:58.149Z,5.60
2019-02-21T06:50:27.350Z,5.60
2019-02-21T06:52:56.244Z,5.60
2019-02-21T06:55:24.979Z,5.60
2019-02-21T06:57:53.739Z,5.60
2019-02-21T07:00:22.580Z,5.60
2019-02-21T07:02:51.339Z,5.60
2019-02-21T07:05:20.182Z,5.60
2019-02-21T07:07:49.890Z,5.60
2019-02-21T07:10:19.000Z,5.60
2019-02-21T07:12:47.834Z,5.60
2019-02-21T07:15:16.724Z,5.60
2019-02-21T07:17:49.367Z,5.70
2019-02-21T07:20:15.924Z,5.70
2019-02-21T07:22:44.690Z,5.70
2019-02-21T07:25:17.556Z,5.70
2019-02-21T07:27:46.356Z,5.70
2019-02-21T07:30:19.735Z,5.80
2019-02-21T07:32:45.716Z,5.80
2019-02-21T07:35:14.541Z,5.80
2019-02-21T07:37:43.454Z,5.90
2019-02-21T07:40:19.858Z,5.90
2019-02-21T07:42:42.667Z,5.90
2019-02-21T07:45:11.616Z,5.90
2019-02-21T07:47:40.445Z,6.00
2019-02-21T07:50:09.477Z,6.00
2019-02-21T07:52:38.355Z,6.00
2019-02-21T07:55:10.457Z,6.00
2019-02-21T07:57:38.891Z,6.10
2019-02-21T08:00:12.565Z,6.10
2019-02-21T08:02:41.402Z,6.10
2019-02-21T08:05:10.180Z,6.10
2019-02-21T08:07:38.996Z,6.10
2019-02-21T08:10:12.156Z,6.20
2019-02-21T08:12:41.061Z,6.20
2019-02-21T08:15:12.071Z,6.20
2019-02-21T08:17:40.935Z,6.30
2019-02-21T08:20:11.764Z,6.30
2019-02-21T08:22:40.684Z,6.40
2019-02-21T08:25:10.814Z,6.40
2019-02-21T08:27:42.351Z,6.40
2019-02-21T08:30:13.128Z,6.40
2019-02-21T08:32:43.548Z,6.50
2019-02-21T08:35:12.354Z,6.50
2019-02-21T08:37:41.261Z,6.60
2019-02-21T08:40:10.036Z,6.60
2019-02-21T08:42:38.860Z,6.60
2019-02-21T08:45:07.715Z,6.70
2019-02-21T08:47:36.493Z,6.70
2019-02-21T08:50:06.165Z,6.70
2019-02-21T08:52:35.020Z,6.70
2019-02-21T08:55:04.043Z,6.80
2019-02-21T08:57:32.814Z,6.80
2019-02-21T09:00:01.660Z,6.90
2019-02-21T09:02:30.444Z,6.90
2019-02-21T09:04:59.171Z,6.90
2019-02-21T09:07:28.063Z,6.90
2019-02-21T09:09:56.827Z,7.00
2019-02-21T09:12:25.589Z,7.00
2019-02-21T09:14:54.446Z,7.10
2019-02-21T09:17:23.204Z,7.10
2019-02-21T09:19:52.053Z,7.10
2019-02-21T09:22:20.860Z,7.10
2019-02-21T09:24:49.642Z,7.20
2019-02-21T09:27:18.478Z,7.10
2019-02-21T09:29:47.389Z,7.10
2019-02-21T09:32:16.196Z,7.10
2019-02-21T09:34:45.051Z,7.10
2019-02-21T09:37:13.932Z,7.20
2019-02-21T09:39:42.733Z,7.20
2019-02-21T09:42:11.555Z,7.20
2019-02-21T09:44:40.453Z,7.20
2019-02-21T09:47:09.315Z,7.30
2019-02-21T09:49:38.132Z,7.30
2019-02-21T09:52:07.045Z,7.40
2019-02-21T09:54:35.756Z,7.40
2019-02-21T09:57:12.956Z,7.40
2019-02-21T09:59:35.069Z,7.50
2019-02-21T10:02:03.794Z,7.50
2019-02-21T10:04:32.645Z,7.60
2019-02-21T10:07:01.444Z,7.60
2019-02-21T10:09:30.212Z,7.60
2019-02-21T10:11:59.205Z,7.60
2019-02-21T10:14:28.268Z,7.60
2019-02-21T10:16:57.103Z,7.70
2019-02-21T10:19:25.916Z,7.70
2019-02-21T10:21:54.770Z,7.70
2019-02-21T10:24:23.661Z,7.70
2019-02-21T10:26:52.509Z,7.70
2019-02-21T10:29:21.380Z,7.70
2019-02-21T10:31:50.219Z,7.70
2019-02-21T10:34:21.586Z,7.70
2019-02-21T10:36:49.540Z,7.70
2019-02-21T10:39:18.313Z,7.70
2019-02-21T10:41:47.123Z,7.70
2019-02-21T10:44:16.045Z,7.70
2019-02-21T10:46:44.918Z,7.70
2019-02-21T10:49:13.660Z,7.80
2019-02-21T10:51:42.539Z,7.80
2019-02-21T10:54:11.400Z,7.90
2019-02-21T10:56:40.237Z,7.90
2019-02-21T10:59:09.130Z,8.00
2019-02-21T11:01:37.972Z,8.00
2019-02-21T11:04:06.790Z,8.00
2019-02-21T11:06:35.614Z,8.10
2019-02-21T11:09:07.078Z,8.20
2019-02-21T11:11:35.836Z,8.20
2019-02-21T11:14:04.741Z,8.30
2019-02-21T11:16:33.589Z,8.30
2019-02-21T11:19:02.403Z,8.30
2019-02-21T11:21:31.292Z,8.30
2019-02-21T11:24:00.137Z,8.40
2019-02-21T11:26:28.900Z,8.50
2019-02-21T11:28:57.771Z,8.50
2019-02-21T11:31:27.876Z,8.60
2019-02-21T11:33:56.877Z,8.70
2019-02-21T11:36:25.789Z,8.70
2019-02-21T11:38:54.731Z,8.70
2019-02-21T11:41:23.556Z,8.80
2019-02-21T11:43:52.390Z,8.90
2019-02-21T11:46:21.124Z,9.10
2019-02-21T11:48:49.946Z,9.20
2019-02-21T11:51:18.859Z,9.40
2019-02-21T11:53:47.716Z,9.40
2019-02-21T11:56:16.534Z,9.50
2019-02-21T11:58:45.402Z,9.60
2019-02-21T12:01:14.188Z,9.70
2019-02-21T12:03:43.021Z,9.80
2019-02-21T12:06:11.932Z,10.00
2019-02-21T12:08:40.714Z,10.00
2019-02-21T12:11:09.452Z,10.10
2019-02-21T12:13:38.284Z,10.10
2019-02-21T12:16:07.124Z,10.10
2019-02-21T12:18:35.972Z,10.10
2019-02-21T12:21:04.968Z,10.00
2019-02-21T12:23:33.806Z,10.00
2019-02-21T12:26:02.626Z,9.90
2019-02-21T12:28:31.444Z,10.00
2019-02-21T12:31:00.284Z,10.00
2019-02-21T12:33:29.064Z,10.00
2019-02-21T12:35:59.522Z,10.10
2019-02-21T12:38:28.621Z,10.20
2019-02-21T12:40:57.453Z,10.20
2019-02-21T12:43:26.332Z,10.30
2019-02-21T12:45:58.123Z,10.30
2019-02-21T12:48:26.956Z,10.40
2019-02-21T12:50:55.796Z,10.40
2019-02-21T12:53:24.690Z,10.40
2019-02-21T12:55:53.442Z,10.40
2019-02-21T12:58:22.328Z,10.40
2019-02-21T13:00:51.173Z,10.50
2019-02-21T13:03:19.932Z,10.40
2019-02-21T13:05:48.772Z,10.50
2019-02-21T13:08:17.604Z,10.50
2019-02-21T13:10:46.356Z,10.50
2019-02-21T13:13:15.237Z,10.50
2019-02-21T13:15:43.988Z,10.60
2019-02-21T13:18:15.878Z,10.60
2019-02-21T13:20:43.368Z,10.60
2019-02-21T13:23:12.205Z,10.60
2019-02-21T13:25:41.003Z,10.70
2019-02-21T13:28:09.821Z,10.70
2019-02-21T13:30:38.668Z,10.80
2019-02-21T13:33:07.420Z,10.80
2019-02-21T13:35:36.283Z,10.70
2019-02-21T13:38:05.124Z,10.70
2019-02-21T13:40:33.910Z,10.60
2019-02-21T13:43:02.802Z,10.60
2019-02-21T13:45:31.654Z,10.60
2019-02-21T13:48:00.491Z,10.60
2019-02-21T13:50:29.380Z,10.60
2019-02-21T13:52:58.247Z,10.50
2019-02-21T13:55:27.077Z,10.50
2019-02-21T13:57:55.944Z,10.50
2019-02-21T14:00:25.014Z,10.40
2019-02-21T14:02:53.877Z,10.40
2019-02-21T14:05:22.722Z,10.40
2019-02-21T14:07:51.514Z,10.40
2019-02-21T14:10:20.341Z,10.40
2019-02-21T14:12:49.304Z,10.50
2019-02-21T14:15:24.259Z,10.50
2019-02-21T14:17:53.091Z,10.50
2019-02-21T14:20:21.917Z,10.40
2019-02-21T14:22:50.689Z,10.40
2019-02-21T14:25:19.492Z,10.40
2019-02-21T14:27:48.330Z,10.40
2019-02-21T14:30:21.492Z,10.30
2019-02-21T14:32:50.301Z,10.30
2019-02-21T14:35:19.199Z,10.40
2019-02-21T14:37:47.966Z,10.30
2019-02-21T14:40:17.626Z,10.30
2019-02-21T14:42:46.476Z,10.30
2019-02-21T14:45:20.517Z,10.30
2019-02-21T14:47:49.291Z,10.30
2019-02-21T14:50:18.069Z,10.20
2019-02-21T14:52:46.855Z,10.30
2019-02-21T14:55:17.634Z,10.20
2019-02-21T14:57:46.465Z,10.20
2019-02-21T15:00:23.348Z,10.30
2019-02-21T15:03:21.497Z,10.20
2019-02-21T15:05:42.018Z,10.20
2019-02-21T15:08:11.533Z,10.10
2019-02-21T15:10:40.292Z,10.00
2019-02-21T15:13:09.236Z,10.00
2019-02-21T15:15:38.011Z,9.80
2019-02-21T15:18:09.085Z,9.70
2019-02-21T15:20:37.440Z,9.70
2019-02-21T15:23:06.244Z,9.60
2019-02-21T15:25:35.123Z,9.60
2019-02-21T15:28:04.077Z,9.50
2019-02-21T15:30:32.916Z,9.40
2019-02-21T15:33:01.766Z,9.40
2019-02-21T15:35:30.643Z,9.30
2019-02-21T15:38:00.586Z,9.40
2019-02-21T15:40:29.612Z,9.30
2019-02-21T15:42:58.405Z,9.30
2019-02-21T15:45:29.003Z,9.20
2019-02-21T15:47:57.868Z,9.20
2019-02-21T15:50:30.023Z,9.20
2019-02-21T15:52:59.061Z,9.10
2019-02-21T15:55:28.012Z,9.10
2019-02-21T15:58:03.978Z,9.00
2019-02-21T16:00:27.421Z,9.00
2019-02-21T16:02:56.187Z,9.00
2019-02-21T16:05:32.551Z,8.90
2019-02-21T16:08:01.364Z,8.90
2019-02-21T16:10:30.226Z,8.90
2019-02-21T16:12:59.526Z,8.90
2019-02-21T16:15:28.507Z,8.90
2019-02-21T16:17:57.340Z,8.90
2019-02-21T16:20:26.303Z,8.90
2019-02-21T16:22:55.101Z,8.90
2019-02-21T16:25:28.619Z,8.80
2019-02-21T16:27:57.556Z,8.80
2019-02-21T16:30:26.404Z,8.80
2019-02-21T16:32:55.334Z,8.80
2019-02-21T16:35:24.230Z,8.80
2019-02-21T16:37:53.076Z,8.70
2019-02-21T16:40:21.940Z,8.70
2019-02-21T16:42:52.437Z,8.70
2019-02-21T16:45:22.442Z,8.70
2019-02-21T16:47:51.422Z,8.70
2019-02-21T16:50:29.192Z,8.70
2019-02-21T16:52:50.750Z,8.70
2019-02-21T16:55:21.091Z,8.70
2019-02-21T16:57:49.999Z,8.70
2019-02-21T17:00:20.068Z,8.70
2019-02-21T17:02:48.892Z,8.60
2019-02-21T17:05:17.907Z,8.60
2019-02-21T17:07:46.700Z,8.60
2019-02-21T17:10:18.230Z,8.60
2019-02-21T17:12:47.273Z,8.60
2019-02-21T17:15:18.235Z,8.60
2019-02-21T17:17:47.157Z,8.60
2019-02-21T17:20:20.757Z,8.60
2019-02-21T17:22:49.524Z,8.60
2019-02-21T17:25:18.306Z,8.60
2019-02-21T17:27:47.422Z,8.60
2019-02-21T17:30:17.419Z,8.60
2019-02-21T17:32:46.444Z,8.60
2019-02-21T17:35:15.419Z,8.60
2019-02-21T17:37:44.272Z,8.60
2019-02-21T17:40:24.262Z,8.60
2019-02-21T17:42:53.076Z,8.60
2019-02-21T17:45:22.324Z,8.60
2019-02-21T17:47:51.187Z,8.60
2019-02-21T17:50:20.652Z,8.70
2019-02-21T17:52:49.631Z,8.70
2019-02-21T17:55:18.833Z,8.60
2019-02-21T17:57:47.596Z,8.60
2019-02-21T18:00:23.476Z,8.60
2019-02-21T18:02:52.303Z,8.60
2019-02-21T18:05:21.295Z,8.60
2019-02-21T18:07:50.186Z,8.60
2019-02-21T18:10:19.188Z,8.60
2019-02-21T18:12:48.280Z,8.60
2019-02-21T18:15:18.284Z,8.60
2019-02-21T18:17:47.475Z,8.60
2019-02-21T18:20:16.917Z,8.60
2019-02-21T18:22:46.196Z,8.60
2019-02-21T18:25:36.163Z,8.60
2019-02-21T18:28:05.106Z,8.60
2019-02-21T18:30:34.112Z,8.60
2019-02-21T18:33:02.901Z,8.60
2019-02-21T18:35:31.868Z,8.60
2019-02-21T18:38:00.850Z,8.60
2019-02-21T18:40:29.742Z,8.60
2019-02-21T18:42:58.636Z,8.60
2019-02-21T18:45:27.558Z,8.60
2019-02-21T18:47:56.371Z,8.60
2019-02-21T18:50:25.276Z,8.60
2019-02-21T18:52:54.158Z,8.60
2019-02-21T18:55:23.134Z,8.60
2019-02-21T18:57:52.102Z,8.60
2019-02-21T19:00:24.966Z,8.60
2019-02-21T19:02:53.781Z,8.60
2019-02-21T19:05:22.875Z,8.50
2019-02-21T19:08:03.993Z,8.50
2019-02-21T19:10:23.395Z,8.50
2019-02-21T19:12:52.429Z,8.50
2019-02-21T19:15:21.852Z,8.50
2019-02-21T19:17:50.843Z,8.50
2019-02-21T19:20:21.020Z,8.50
2019-02-21T19:22:50.077Z,8.50
2019-02-21T19:25:19.066Z,8.60
2019-02-21T19:27:49.796Z,8.50
2019-02-21T19:30:25.770Z,8.60
2019-02-21T19:32:54.794Z,8.50
2019-02-21T19:35:23.738Z,8.50
2019-02-21T19:37:52.607Z,8.50
2019-02-21T19:40:21.508Z,8.50
2019-02-21T19:42:50.360Z,8.50
2019-02-21T19:45:19.291Z,8.50
2019-02-21T19:47:48.172Z,8.50
2019-02-21T19:50:17.252Z,8.50
2019-02-21T19:52:46.101Z,8.50
2019-02-21T19:55:15.354Z,8.60
2019-02-21T19:57:44.147Z,8.50
2019-02-21T20:00:16.444Z,8.60
2019-02-21T20:02:45.420Z,8.60
2019-02-21T20:05:14.923Z,8.60
2019-02-21T20:07:43.775Z,8.60
2019-02-21T20:10:12.608Z,8.60
2019-02-21T20:12:41.439Z,8.60
2019-02-21T20:15:12.484Z,8.60
2019-02-21T20:17:41.442Z,8.60
2019-02-21T20:20:25.054Z,8.60
2019-02-21T20:22:53.902Z,8.60
2019-02-21T20:25:22.741Z,8.70
2019-02-21T20:27:51.642Z,8.70
2019-02-21T20:30:20.846Z,8.70
2019-02-21T20:32:49.790Z,8.60
2019-02-21T20:35:18.644Z,8.70
2019-02-21T20:37:47.713Z,8.70
2019-02-21T20:40:16.452Z,8.70
2019-02-21T20:42:45.396Z,8.70
2019-02-21T20:45:15.392Z,8.70
2019-02-21T20:47:44.220Z,8.70
2019-02-21T20:50:13.265Z,8.70
2019-02-21T20:52:42.318Z,8.70
2019-02-21T20:55:12.150Z,8.70
2019-02-21T20:57:41.116Z,8.70
2019-02-21T21:00:15.628Z,8.70
2019-02-21T21:02:44.837Z,8.70
2019-02-21T21:05:14.680Z,8.80
2019-02-21T21:07:43.763Z,8.80
2019-02-21T21:10:14.952Z,8.80
2019-02-21T21:12:43.764Z,8.80
2019-02-21T21:15:13.887Z,8.80
2019-02-21T21:17:42.704Z,8.80
2019-02-21T21:20:17.048Z,8.80
2019-02-21T21:22:44.156Z,8.80
2019-02-21T21:25:15.215Z,8.80
2019-02-21T21:27:44.026Z,8.80
2019-02-21T21:30:17.613Z,8.80
2019-02-21T21:32:46.457Z,8.80
2019-02-21T21:35:15.301Z,8.80
2019-02-21T21:37:44.194Z,8.80
2019-02-21T21:40:17.371Z,8.80
2019-02-21T21:42:46.132Z,8.80
2019-02-21T21:45:16.513Z,8.80
2019-02-21T21:47:45.364Z,8.80
2019-02-21T21:50:16.506Z,8.80
2019-02-21T21:52:45.404Z,8.80
2019-02-21T21:55:14.357Z,8.80
2019-02-21T21:57:43.143Z,8.80
2019-02-21T22:00:14.987Z,8.80
2019-02-21T22:02:45.419Z,8.80
2019-02-21T22:05:14.334Z,8.80
2019-02-21T22:07:43.157Z,8.80
2019-02-21T22:10:13.491Z,8.90
2019-02-21T22:12:42.523Z,8.90
2019-02-21T22:15:16.923Z,8.90
2019-02-21T22:17:45.758Z,8.90
2019-02-21T22:20:14.518Z,8.90
2019-02-21T22:22:43.348Z,8.90
2019-02-21T22:25:13.268Z,8.90
2019-02-21T22:27:42.047Z,8.90
2019-02-21T22:30:13.795Z,8.90
2019-02-21T22:32:42.573Z,8.90
2019-02-21T22:35:11.411Z,8.90
2019-02-21T22:37:40.284Z,8.90
2019-02-21T22:40:11.891Z,8.90
2019-02-21T22:42:40.661Z,8.90
2019-02-21T22:45:10.333Z,8.90
2019-02-21T22:47:39.102Z,8.90
2019-02-21T22:50:15.658Z,8.90
2019-02-21T22:52:44.420Z,8.90
2019-02-21T22:55:13.225Z,8.90
2019-02-21T22:57:42.084Z,9.00
2019-02-21T23:00:36.757Z,9.00
2019-02-21T23:03:12.611Z,8.90
2019-02-21T23:05:55.859Z,8.90
2019-02-21T23:08:33.588Z,8.90
2019-02-21T23:11:02.427Z,8.90
2019-02-21T23:13:31.178Z,8.90
2019-02-21T23:16:00.084Z,8.90
2019-02-21T23:18:28.852Z,8.90
2019-02-21T23:20:57.684Z,9.00
2019-02-21T23:23:26.466Z,9.00
2019-02-21T23:25:55.307Z,9.00
2019-02-21T23:28:24.139Z,9.00
2019-02-21T23:30:53.044Z,8.90
2019-02-21T23:33:23.138Z,8.90
2019-02-21T23:35:51.981Z,8.90
2019-02-21T23:38:20.876Z,8.90
2019-02-21T23:40:49.628Z,9.00
2019-02-21T23:43:18.426Z,9.00
2019-02-21T23:45:47.316Z,9.00
2019-02-21T23:48:16.156Z,8.90
2019-02-21T23:50:44.979Z,8.90
2019-02-21T23:53:13.875Z,8.90
2019-02-21T23:55:42.723Z,8.90
2019-02-21T23:58:11.565Z,8.90
